Flugplatz Neuburg Airport

Bericht für ETSN

vom 21.07. um 20:20 UTC

Wind 2 kt aus 230°

Sichtweite 10 km oder mehr

gering bewölkt in 6000 ft

aufgebrochene Bewölkung in 28000 ft

Temperatur 20.0°C

Taupunkt 14.0°C

Luftfeuchtigkeit 68%

Luftdruck 1023 hPa

ETSN 212020Z 23002KT 9999 FEW060 BKN280 20/14 Q1023 BLU+

Prognose für ETSN

vom 21.07. um 00:00 UTC

Zwischen 00:00 UTC und 00:00 UTC

Wind 5 kt aus 250°

Sichtweite 10 km oder mehr

keine signifikanten Wettererscheinungen

gering bewölkt in 6000 ft

aufgebrochene Bewölkung in 28000 ft


Am 22.07. zwischen 00:00 UTC und 00:00 UTC zeitweise

variable Windrichtung mit 3 kt

Sichtweite 3000 m

Nebelschwaden

aufgelockert bewölkt in 28000 ft

TAF ETSN 211900Z 2120/2205 25005KT 9999 NSW FEW060 BKN280 TEMPO 2201/2205 VRB03KT 3000 BCFG SCT280 BY ETGL
Impressum